Time;durP1;ratioP1;P1;durP2;ratioP2;P2;SDS_P1;SDS_P2;PMS_P1;PMS_P2;Temp;Humidity;BMP_temperature;BMP_pressure;BME280_temperature;BME280_humidity;BME280_pressure;Samples;Min_cycle;Max_cycle;Signal;HPM_P1;HPM_P2
2022/05/29 00:01:51;;;;;;;15.98;8.03;;;;;;;15.49;69.71;100565.92;1828344;78;21268;-84
2022/05/29 00:04:18;;;;;;;12.45;7.90;;;;;;;15.51;69.79;100554.74;1827002;78;20840;-87
2022/05/29 00:06:47;;;;;;;12.13;7.85;;;;;;;15.53;69.84;100547.53;1825736;78;20919;-86
2022/05/29 00:09:20;;;;;;;10.28;6.70;;;;;;;15.54;69.84;100549.72;1826784;78;20939;-87
2022/05/29 00:11:47;;;;;;;11.78;7.47;;;;;;;15.57;69.85;100543.34;1825556;78;20919;-87
2022/05/29 00:14:13;;;;;;;10.60;6.95;;;;;;;15.60;69.94;100543.91;1825355;78;21766;-87
2022/05/29 00:16:40;;;;;;;7.85;6.67;;;;;;;15.61;70.01;100550.88;1825342;78;20867;-86
2022/05/29 00:19:07;;;;;;;12.85;7.42;;;;;;;15.63;70.01;100545.45;1825477;78;20923;-87
2022/05/29 00:21:36;;;;;;;8.23;7.05;;;;;;;15.64;70.04;100549.78;1825319;78;20935;-86
2022/05/29 00:27:11;;;;;;;13.55;7.03;;;;;;;15.70;70.56;100550.13;1855231;77;22535;-86
2022/05/29 00:29:39;;;;;;;9.78;6.78;;;;;;;15.67;70.74;100549.06;1822938;78;20935;-89
2022/05/29 00:32:07;;;;;;;8.63;5.95;;;;;;;15.68;70.87;100538.00;1822643;78;21209;-88
2022/05/29 00:34:33;;;;;;;11.90;7.83;;;;;;;15.66;71.10;100533.31;1822732;78;20967;-87
2022/05/29 00:37:05;;;;;;;11.55;6.53;;;;;;;15.63;71.25;100537.06;1822623;78;20918;-87
2022/05/29 00:39:32;;;;;;;12.85;6.90;;;;;;;15.65;71.53;100538.23;1822595;78;20884;-87
2022/05/29 00:42:01;;;;;;;10.28;8.68;;;;;;;15.66;71.65;100538.11;1823186;78;20828;-89
2022/05/29 00:44:30;;;;;;;9.43;7.62;;;;;;;15.67;71.67;100537.17;1817828;78;21777;-88
2022/05/29 00:47:00;;;;;;;9.20;6.37;;;;;;;15.66;71.82;100543.41;1822609;78;20919;-88
2022/05/29 00:49:33;;;;;;;9.50;8.50;;;;;;;15.65;72.13;100547.48;1822844;78;20990;-88
2022/05/29 00:52:28;;;;;;;9.90;7.53;;;;;;;15.62;72.42;100559.16;1822454;78;20931;-88
2022/05/29 00:54:59;;;;;;;12.15;7.83;;;;;;;15.61;72.64;100558.81;1822617;78;20942;-87
2022/05/29 00:57:38;;;;;;;13.13;8.23;;;;;;;15.61;72.56;100560.62;1822562;78;21984;-88
2022/05/29 01:00:18;;;;;;;12.70;6.83;;;;;;;15.61;72.53;100561.45;1822537;78;20951;-88
2022/05/29 01:02:45;;;;;;;11.25;7.42;;;;;;;15.63;72.58;100553.38;1822536;78;20919;-87
2022/05/29 01:05:14;;;;;;;11.55;7.08;;;;;;;15.65;72.62;100552.77;1822533;78;21412;-87
2022/05/29 01:07:48;;;;;;;10.85;7.28;;;;;;;15.66;72.60;100557.95;1822501;78;21373;-88
2022/05/29 01:10:15;;;;;;;9.83;7.20;;;;;;;15.66;72.55;100546.53;1822961;78;21145;-88
2022/05/29 01:13:09;;;;;;;13.32;7.85;;;;;;;15.67;72.61;100553.03;1822539;78;20899;-87
2022/05/29 01:16:21;;;;;;;10.53;7.58;;;;;;;15.67;72.74;100552.16;1821129;78;20971;-88
2022/05/29 01:19:28;;;;;;;12.88;8.55;;;;;;;15.68;72.93;100553.37;1822783;78;21921;-87
2022/05/29 01:22:32;;;;;;;13.60;8.13;;;;;;;15.67;73.00;100553.03;1822616;78;20970;-87
2022/05/29 01:25:22;;;;;;;12.82;8.03;;;;;;;15.65;73.12;100558.92;1822676;78;21235;-88
2022/05/29 01:28:22;;;;;;;8.25;7.30;;;;;;;15.64;73.33;100564.33;1826325;78;20922;-87
2022/05/29 01:30:53;;;;;;;10.50;6.70;;;;;;;15.59;73.44;100568.67;1822545;77;20887;-87
2022/05/29 01:33:47;;;;;;;14.40;7.67;;;;;;;15.55;73.56;100573.84;1825801;78;20968;-88
2022/05/29 01:36:45;;;;;;;10.05;7.67;;;;;;;15.53;73.72;100576.61;1825813;78;20962;-85
2022/05/29 01:39:27;;;;;;;8.53;5.80;;;;;;;15.50;73.77;100574.22;1825258;77;21140;-87
2022/05/29 01:42:07;;;;;;;13.00;7.03;;;;;;;15.49;73.87;100570.38;1825272;77;20876;-88
2022/05/29 01:44:42;;;;;;;10.90;6.58;;;;;;;15.49;73.81;100565.09;1825313;78;20982;-88
2022/05/29 01:47:26;;;;;;;11.55;7.08;;;;;;;15.49;74.04;100569.89;1824948;78;20868;-87
2022/05/29 01:49:58;;;;;;;13.30;7.72;;;;;;;15.49;74.22;100579.63;1824486;78;21455;-87
2022/05/29 01:52:33;;;;;;;10.90;5.67;;;;;;;15.49;74.36;100576.98;1825774;78;21189;-87
2022/05/29 01:55:10;;;;;;;12.15;7.20;;;;;;;15.49;74.50;100577.81;1825260;77;20837;-88
2022/05/29 01:57:40;;;;;;;12.35;8.18;;;;;;;15.46;74.46;100570.15;1825316;77;20923;-88
2022/05/29 02:00:18;;;;;;;9.28;7.47;;;;;;;15.45;74.61;100573.77;1824838;77;21361;-88
2022/05/29 02:03:07;;;;;;;10.65;7.58;;;;;;;15.42;74.75;100570.52;1824707;77;20879;-86
2022/05/29 02:05:42;;;;;;;11.78;8.48;;;;;;;15.42;75.02;100571.36;1825022;78;21306;-87
2022/05/29 02:08:33;;;;;;;12.82;8.08;;;;;;;15.44;75.35;100572.56;1825205;77;20877;-88
2022/05/29 02:11:12;;;;;;;12.03;8.35;;;;;;;15.47;75.43;100569.66;1825293;77;20994;-87
2022/05/29 02:13:47;;;;;;;12.40;8.65;;;;;;;15.50;75.67;100565.47;1824655;77;20852;-87
2022/05/29 02:16:18;;;;;;;15.03;9.88;;;;;;;15.52;75.57;100560.41;1825150;78;21002;-88
2022/05/29 02:18:58;;;;;;;12.40;10.82;;;;;;;15.57;75.69;100569.28;1824851;78;21805;-87
2022/05/29 02:21:36;;;;;;;18.50;11.08;;;;;;;15.60;75.67;100573.47;1825254;78;21072;-87
2022/05/29 02:24:11;;;;;;;16.40;10.93;;;;;;;15.61;75.65;100580.45;1825717;77;20919;-87
2022/05/29 02:26:42;;;;;;;17.85;11.65;;;;;;;15.62;75.69;100580.30;1824833;78;20983;-86
2022/05/29 02:29:11;;;;;;;14.55;10.72;;;;;;;15.63;75.64;100592.58;1825326;78;21329;-88
2022/05/29 02:32:06;;;;;;;14.07;10.10;;;;;;;15.64;75.67;100596.88;1825076;78;21130;-88
2022/05/29 02:34:57;;;;;;;14.13;10.18;;;;;;;15.63;75.71;100612.86;1825115;77;21363;-88
2022/05/29 02:37:38;;;;;;;12.07;9.73;;;;;;;15.61;75.75;100634.16;1825140;77;20919;-87
2022/05/29 02:40:35;;;;;;;12.23;8.73;;;;;;;15.59;76.12;100633.92;1824742;77;21025;-87
2022/05/29 02:43:40;;;;;;;12.98;9.70;;;;;;;15.59;76.39;100623.35;1825265;77;20906;-86
2022/05/29 02:46:38;;;;;;;13.32;9.73;;;;;;;15.55;76.48;100597.15;1825553;77;21113;-87
2022/05/29 02:49:13;;;;;;;12.95;9.38;;;;;;;15.53;76.64;100595.11;1790647;78;20966;-85
2022/05/29 02:51:50;;;;;;;13.05;10.00;;;;;;;15.52;76.75;100591.29;1808266;78;21571;-87
2022/05/29 02:54:25;;;;;;;16.27;10.75;;;;;;;15.53;76.86;100604.36;1825122;77;20958;-86
2022/05/29 02:56:54;;;;;;;12.70;11.28;;;;;;;15.55;76.92;100599.79;1825261;77;20832;-87
2022/05/29 02:59:26;;;;;;;19.37;10.45;;;;;;;15.59;76.82;100598.23;1825364;78;21369;-86
2022/05/29 03:02:16;;;;;;;18.62;10.82;;;;;;;15.60;76.76;100592.80;1825148;78;20946;-88
2022/05/29 03:05:25;;;;;;;16.82;10.30;;;;;;;15.64;76.76;100593.41;1825283;78;20883;-87
2022/05/29 03:08:31;;;;;;;13.50;8.73;;;;;;;15.64;76.46;100595.56;1825227;77;20926;-88
2022/05/29 03:11:12;;;;;;;15.83;10.38;;;;;;;15.65;76.35;100601.22;1826103;78;20919;-87
2022/05/29 03:14:11;;;;;;;13.78;10.65;;;;;;;15.67;76.67;100621.77;1798335;78;21179;-86
2022/05/29 03:17:01;;;;;;;15.23;10.80;;;;;;;15.67;76.78;100640.73;1824338;77;20899;-88
2022/05/29 03:19:57;;;;;;;13.10;9.95;;;;;;;15.67;77.10;100640.27;1824490;78;20915;-87
2022/05/29 03:22:40;;;;;;;12.78;9.78;;;;;;;15.67;77.18;100631.48;1825058;77;20975;-87
2022/05/29 03:25:20;;;;;;;15.63;10.00;;;;;;;15.66;77.46;100619.23;1825446;77;20911;-87
2022/05/29 03:27:49;;;;;;;14.40;10.18;;;;;;;15.67;77.54;100619.13;1824997;78;21268;-88
2022/05/29 03:30:23;;;;;;;12.47;9.90;;;;;;;15.68;77.12;100626.08;1825038;78;20963;-88
2022/05/29 03:32:56;;;;;;;12.50;9.30;;;;;;;15.71;76.57;100631.13;1825207;78;20911;-88
2022/05/29 03:35:31;;;;;;;13.72;10.05;;;;;;;15.74;76.09;100624.30;1825231;78;21384;-88
2022/05/29 03:37:59;;;;;;;11.48;8.68;;;;;;;15.78;75.96;100636.77;1825091;78;20954;-88
2022/05/29 03:40:28;;;;;;;12.68;9.73;;;;;;;15.82;76.04;100656.70;1825230;78;21224;-88
2022/05/29 03:42:56;;;;;;;13.72;9.48;;;;;;;15.81;75.92;100686.77;1825024;78;20930;-86
2022/05/29 03:45:23;;;;;;;18.57;10.18;;;;;;;15.80;76.22;100706.72;1825092;78;21369;-87
2022/05/29 03:47:50;;;;;;;13.62;9.48;;;;;;;15.78;76.29;100705.52;1825366;78;20887;-89
2022/05/29 03:50:19;;;;;;;12.45;8.93;;;;;;;15.78;76.25;100686.17;1825647;78;20903;-88
2022/05/29 03:52:47;;;;;;;9.85;7.80;;;;;;;15.74;75.97;100680.30;1825218;78;21312;-89
2022/05/29 03:55:15;;;;;;;10.72;8.55;;;;;;;15.71;75.80;100681.37;1825220;78;20868;-88
2022/05/29 03:57:41;;;;;;;12.07;8.43;;;;;;;15.72;75.44;100688.84;1825255;78;20860;-87
2022/05/29 04:00:11;;;;;;;10.78;8.28;;;;;;;15.73;75.17;100682.58;1825318;78;21010;-87
2022/05/29 04:02:40;;;;;;;8.30;7.47;;;;;;;15.73;74.76;100682.58;1825288;78;20879;-88
2022/05/29 04:05:10;;;;;;;10.13;7.75;;;;;;;15.74;74.64;100690.39;1825192;78;21436;-88
2022/05/29 04:13:08;;;;;;;10.85;7.50;;;;;;;15.74;74.81;100689.08;1825516;78;20896;-87
2022/05/29 04:15:36;;;;;;;9.25;7.97;;;;;;;15.73;74.92;100711.66;1824682;78;21021;-88
2022/05/29 04:18:04;;;;;;;11.25;7.72;;;;;;;15.72;75.15;100735.95;1825291;78;21249;-88
2022/05/29 04:20:32;;;;;;;12.00;7.95;;;;;;;15.71;75.36;100730.28;1825205;78;20880;-88
2022/05/29 04:22:58;;;;;;;12.00;7.50;;;;;;;15.70;75.56;100724.62;1825366;78;20911;-87
2022/05/29 04:25:28;;;;;;;10.10;6.80;;;;;;;15.69;75.65;100730.85;1825192;78;20916;-87
2022/05/29 04:27:55;;;;;;;10.03;7.12;;;;;;;15.68;75.91;100730.51;1825694;77;20959;-88
2022/05/29 04:30:22;;;;;;;9.45;7.35;;;;;;;15.66;76.25;100725.82;1827970;76;21194;-87
2022/05/29 04:32:59;;;;;;;8.75;5.95;;;;;;;15.64;76.68;100704.44;1827958;77;20966;-88
2022/05/29 04:35:29;;;;;;;8.40;6.00;;;;;;;15.63;76.44;100694.81;1827413;76;21097;-87
2022/05/29 04:37:56;;;;;;;9.18;6.67;;;;;;;15.61;75.93;100686.19;1827871;77;20942;-88
2022/05/29 04:40:22;;;;;;;9.65;7.15;;;;;;;15.59;76.14;100688.11;1827744;76;21282;-86
2022/05/29 04:42:50;;;;;;;8.28;6.87;;;;;;;15.61;76.09;100696.28;1827988;77;21044;-87
2022/05/29 04:45:17;;;;;;;8.23;7.05;;;;;;;15.55;76.25;100692.80;1828222;76;20864;-88
2022/05/29 04:47:43;;;;;;;8.80;6.95;;;;;;;15.68;76.46;100709.36;1828481;76;20899;-87
2022/05/29 04:50:11;;;;;;;9.80;6.37;;;;;;;15.70;76.57;100705.28;1828159;77;20903;-87
2022/05/29 04:52:38;;;;;;;14.47;6.45;;;;;;;15.71;76.62;100709.13;1828195;77;20887;-88
2022/05/29 04:55:07;;;;;;;6.58;4.85;;;;;;;15.73;76.10;100707.20;1828372;76;21155;-86
2022/05/29 04:57:34;;;;;;;7.58;4.12;;;;;;;15.73;74.93;100704.56;1828487;77;20864;-86
2022/05/29 05:00:04;;;;;;;6.00;4.75;;;;;;;15.78;73.65;100709.97;1827749;76;21116;-86
2022/05/29 05:02:31;;;;;;;7.08;3.25;;;;;;;15.80;72.16;100708.05;1828073;77;20880;-86
2022/05/29 05:04:58;;;;;;;6.37;2.85;;;;;;;15.82;71.14;100708.77;1828238;76;21041;-87
2022/05/29 05:07:26;;;;;;;3.87;3.05;;;;;;;15.85;69.47;100717.30;1828507;77;20896;-86
2022/05/29 05:09:53;;;;;;;6.50;2.98;;;;;;;15.88;68.68;100723.66;1828397;76;20809;-85
2022/05/29 05:12:19;;;;;;;5.62;2.40;;;;;;;15.91;67.80;100727.84;1828569;77;20919;-87
2022/05/29 05:14:46;;;;;;;6.42;2.80;;;;;;;15.93;67.71;100732.53;1828174;78;21001;-88
2022/05/29 05:17:13;;;;;;;2.75;2.50;;;;;;;15.97;67.27;100732.66;1828717;78;20907;-88
2022/05/29 05:19:40;;;;;;;3.67;2.40;;;;;;;15.98;66.68;100731.67;1828809;77;21120;-92
2022/05/29 05:22:10;;;;;;;18.23;16.30;;;;;;;16.00;66.43;100720.98;1827205;77;21439;-89
2022/05/29 05:24:38;;;;;;;15.55;13.93;;;;;;;16.01;66.11;100725.28;1825431;78;20896;-89
2022/05/29 05:27:07;;;;;;;18.95;16.67;;;;;;;16.01;65.41;100735.87;1824107;78;21017;-88
2022/05/29 05:29:35;;;;;;;7.80;5.53;;;;;;;15.99;65.45;100727.25;1824255;78;21010;-88
2022/05/29 05:32:02;;;;;;;3.17;2.85;;;;;;;15.99;65.20;100725.44;1822642;78;21069;-89
2022/05/29 05:34:29;;;;;;;5.90;2.22;;;;;;;16.00;65.57;100724.94;1823018;78;21362;-88
2022/05/29 05:36:57;;;;;;;2.77;2.15;;;;;;;16.02;65.69;100725.66;1822673;78;20979;-88
2022/05/29 05:39:24;;;;;;;3.58;2.90;;;;;;;16.03;65.63;100737.45;1822148;78;20891;-88
2022/05/29 05:41:51;;;;;;;4.15;1.75;;;;;;;16.03;65.08;100746.71;1823650;78;20954;-87
2022/05/29 05:44:18;;;;;;;3.98;2.60;;;;;;;16.03;64.78;100754.65;1825135;78;21149;-87
2022/05/29 05:46:49;;;;;;;5.15;1.70;;;;;;;16.05;64.58;100765.08;1824608;78;20950;-86
2022/05/29 05:49:18;;;;;;;3.58;2.20;;;;;;;16.06;64.52;100762.33;1824001;78;21424;-84
2022/05/29 05:51:45;;;;;;;6.78;2.55;;;;;;;16.07;64.52;100757.86;1823018;78;21058;-91
2022/05/29 05:54:12;;;;;;;3.10;1.50;;;;;;;16.11;64.64;100767.23;1823338;78;21686;-87
2022/05/29 05:56:44;;;;;;;50.78;44.53;;;;;;;16.11;64.17;100753.52;1822494;78;21072;-88
2022/05/29 05:59:11;;;;;;;17.57;13.65;;;;;;;16.11;63.59;100753.52;1821741;78;21290;-87
2022/05/29 06:01:38;;;;;;;6.75;3.08;;;;;;;16.06;63.06;100750.42;1821995;78;20971;-88
2022/05/29 06:04:05;;;;;;;16.57;13.15;;;;;;;16.02;62.81;100750.80;1821959;78;21044;-86
2022/05/29 06:06:32;;;;;;;14.20;10.23;;;;;;;15.99;62.43;100749.24;1822002;78;21025;-87
2022/05/29 06:08:58;;;;;;;5.70;2.22;;;;;;;15.93;61.55;100756.34;1822193;78;21220;-88
2022/05/29 06:11:27;;;;;;;2.08;1.35;;;;;;;15.88;61.84;100761.17;1821849;78;20927;-87
2022/05/29 06:13:56;;;;;;;3.22;1.52;;;;;;;15.81;62.51;100755.53;1821938;78;20959;-87
2022/05/29 06:16:24;;;;;;;4.22;1.05;;;;;;;15.80;62.98;100754.31;1822503;78;21071;-85
2022/05/29 06:18:52;;;;;;;3.65;1.25;;;;;;;15.78;63.25;100747.82;1822350;78;21325;-84
2022/05/29 06:21:19;;;;;;;3.00;1.37;;;;;;;15.80;63.82;100749.86;1821960;78;21132;-87
2022/05/29 06:23:45;;;;;;;1.67;1.07;;;;;;;15.86;64.50;100745.91;1821668;78;20982;-87
2022/05/29 06:26:12;;;;;;;1.77;1.52;;;;;;;15.92;64.15;100746.73;1821605;78;20848;-87
2022/05/29 06:28:40;;;;;;;1.62;1.27;;;;;;;16.01;64.21;100747.77;1821672;78;21412;-87
2022/05/29 06:31:10;;;;;;;1.77;1.40;;;;;;;16.07;64.08;100748.61;1821730;78;20928;-86
2022/05/29 06:33:37;;;;;;;2.27;1.12;;;;;;;16.16;64.10;100753.14;1821798;78;21133;-87
2022/05/29 06:36:13;;;;;;;3.45;1.47;;;;;;;16.27;63.74;100753.11;1821724;78;20848;-85
2022/05/29 06:38:40;;;;;;;8.50;6.50;;;;;;;16.38;63.53;100752.23;1821907;78;20884;-87
2022/05/29 06:41:09;;;;;;;5.55;1.35;;;;;;;16.51;63.43;100744.95;1822020;78;21025;-89
2022/05/29 06:43:36;;;;;;;1.95;1.32;;;;;;;16.61;62.84;100750.34;1790267;78;20974;-87
2022/05/29 06:46:03;;;;;;;3.75;1.20;;;;;;;16.68;62.15;100750.18;1821770;78;21233;-88
2022/05/29 06:48:32;;;;;;;2.05;1.47;;;;;;;16.75;62.02;100755.80;1822008;78;20955;-87
2022/05/29 06:51:12;;;;;;;3.27;1.27;;;;;;;16.82;61.79;100745.56;1821796;78;20924;-87
2022/05/29 06:53:41;;;;;;;0.93;0.93;;;;;;;16.88;61.34;100749.86;1821767;78;20978;-84
2022/05/29 06:56:08;;;;;;;1.32;1.22;;;;;;;16.98;61.08;100741.50;1821825;78;20966;-88
2022/05/29 06:58:35;;;;;;;2.30;1.98;;;;;;;17.01;60.90;100748.34;1821813;78;21235;-87
2022/05/29 07:09:23;;;;;;;1.72;1.20;;;;;;;17.12;60.47;100760.65;1822242;78;20883;-88
2022/05/29 07:11:54;;;;;;;1.95;0.98;;;;;;;17.11;60.61;100759.81;1821975;78;21193;-88
2022/05/29 07:14:21;;;;;;;1.60;0.90;;;;;;;17.11;60.69;100769.09;1821945;78;20868;-90
2022/05/29 07:16:48;;;;;;;1.55;1.17;;;;;;;17.09;60.23;100767.55;1821943;78;20892;-86
2022/05/29 07:19:15;;;;;;;1.50;1.05;;;;;;;16.98;60.16;100777.27;1822135;78;20986;-88
2022/05/29 07:21:42;;;;;;;2.22;1.12;;;;;;;16.92;60.45;100776.45;1822001;78;20911;-88
2022/05/29 07:24:10;;;;;;;3.02;1.42;;;;;;;16.88;60.57;100772.37;1821907;78;20907;-87
2022/05/29 07:26:40;;;;;;;3.22;1.37;;;;;;;16.84;60.85;100768.30;1821836;78;20927;-85
2022/05/29 07:29:07;;;;;;;3.60;1.20;;;;;;;16.81;61.12;100760.62;1821741;78;21599;-88
2022/05/29 07:31:34;;;;;;;3.87;1.30;;;;;;;16.81;61.20;100770.36;1821701;78;21000;-88
2022/05/29 07:34:01;;;;;;;2.22;1.12;;;;;;;16.82;61.53;100772.89;1821941;78;20923;-88
2022/05/29 07:36:28;;;;;;;1.92;1.22;;;;;;;16.77;62.07;100772.41;1821816;78;21187;-87
2022/05/29 07:38:55;;;;;;;1.20;0.90;;;;;;;16.72;62.10;100772.80;1821919;78;20966;-87
2022/05/29 07:44:08;;;;;;;1.47;1.30;;;;;;;16.63;62.87;100772.70;1821783;78;20975;-88
2022/05/29 07:46:34;;;;;;;2.00;1.47;;;;;;;16.57;63.14;100780.20;1821673;78;20860;-86
2022/05/29 07:49:01;;;;;;;2.17;1.90;;;;;;;16.48;63.70;100787.58;1821748;78;21161;-88
2022/05/29 07:51:27;;;;;;;1.32;1.22;;;;;;;16.38;63.96;100791.93;1821475;78;20923;-88
2022/05/29 07:53:55;;;;;;;2.65;1.47;;;;;;;16.33;64.62;100790.16;1821579;78;20841;-86
2022/05/29 07:56:22;;;;;;;3.37;1.67;;;;;;;16.28;65.00;100790.53;1821703;78;20919;-88
2022/05/29 07:58:48;;;;;;;2.90;1.47;;;;;;;16.22;65.39;100792.34;1821815;78;20916;-88
2022/05/29 08:01:15;;;;;;;2.33;1.37;;;;;;;16.15;65.70;100798.61;1821797;78;21135;-86
2022/05/29 08:03:42;;;;;;;4.58;1.50;;;;;;;16.12;65.96;100792.75;1821657;78;20895;-89
2022/05/29 08:06:10;;;;;;;2.10;1.32;;;;;;;16.08;66.16;100797.92;1821874;78;20919;-89
2022/05/29 08:08:38;;;;;;;3.12;1.47;;;;;;;16.05;66.41;100801.66;1821674;78;20927;-86
2022/05/29 08:11:05;;;;;;;2.08;1.87;;;;;;;16.01;66.53;100798.03;1821999;78;21050;-85
2022/05/29 08:13:32;;;;;;;1.75;1.65;;;;;;;16.00;66.69;100801.66;1821758;78;21117;-88
2022/05/29 08:16:02;;;;;;;2.37;1.62;;;;;;;16.00;66.79;100797.69;1821847;78;21348;-88
2022/05/29 08:18:29;;;;;;;4.00;1.40;;;;;;;16.01;66.71;100796.25;1821803;78;20951;-87
2022/05/29 08:20:56;;;;;;;4.15;1.62;;;;;;;16.02;66.81;100792.63;1821889;78;21384;-88
2022/05/29 08:23:23;;;;;;;3.10;1.80;;;;;;;16.06;67.06;100802.00;1821955;78;20946;-87
2022/05/29 08:31:21;;;;;;;1.50;1.25;;;;;;;16.08;66.61;100819.92;1822389;78;20852;-89
2022/05/29 08:33:48;;;;;;;25.27;22.73;;;;;;;16.08;66.61;100823.89;1821804;78;21409;-88
2022/05/29 08:36:24;;;;;;;11.70;10.05;;;;;;;16.05;66.69;100830.77;1822075;78;21017;-89
2022/05/29 08:38:53;;;;;;;32.08;23.50;;;;;;;16.05;67.02;100829.89;1822055;78;21237;-88
2022/05/29 08:41:31;;;;;;;9.75;5.80;;;;;;;16.04;67.05;100833.03;1821824;78;20883;-88
2022/05/29 08:44:16;;;;;;;4.15;2.30;;;;;;;16.02;67.23;100829.66;1815485;78;21389;-88
2022/05/29 08:46:49;;;;;;;3.85;2.30;;;;;;;16.03;67.73;100835.78;1821643;78;20868;-88
2022/05/29 08:49:19;;;;;;;3.72;2.20;;;;;;;16.02;68.12;100842.89;1822149;78;20966;-90
2022/05/29 08:52:12;;;;;;;6.08;2.60;;;;;;;16.02;68.29;100849.99;1822154;78;21146;-88
2022/05/29 08:54:50;;;;;;;3.00;2.05;;;;;;;15.96;68.31;100855.27;1815084;78;21104;-88
2022/05/29 08:57:47;;;;;;;2.65;1.22;;;;;;;15.88;68.49;100865.64;1821924;78;20950;-89
2022/05/29 09:00:22;;;;;;;2.55;1.47;;;;;;;15.81;68.97;100873.20;1821874;78;20884;-87
2022/05/29 09:03:14;;;;;;;5.53;2.37;;;;;;;15.80;69.18;100882.57;1821788;78;20974;-89
2022/05/29 09:05:47;;;;;;;4.15;1.40;;;;;;;15.82;69.47;100883.30;1821699;78;21183;-89
2022/05/29 09:08:30;;;;;;;1.98;1.50;;;;;;;15.85;69.89;100878.63;1821245;78;20986;-89
2022/05/29 09:11:16;;;;;;;4.92;1.80;;;;;;;15.86;70.05;100884.75;1820724;78;20980;-89
2022/05/29 09:13:54;;;;;;;2.08;1.82;;;;;;;15.83;70.20;100890.25;1821563;78;20887;-88
2022/05/29 09:16:25;;;;;;;1.85;1.50;;;;;;;15.76;70.40;100897.83;1821890;78;20896;-89
2022/05/29 09:19:08;;;;;;;3.58;1.95;;;;;;;15.72;70.67;100901.20;1822152;78;21782;-87
2022/05/29 09:22:03;;;;;;;2.80;1.65;;;;;;;15.70;70.71;100895.64;1822207;78;20954;-88
2022/05/29 09:24:54;;;;;;;2.15;1.75;;;;;;;15.62;70.78;100892.25;1823484;78;20899;-85
2022/05/29 09:27:23;;;;;;;1.60;1.50;;;;;;;15.61;71.14;100891.07;1822599;78;20930;-89
2022/05/29 09:29:51;;;;;;;4.28;2.80;;;;;;;15.62;71.23;100903.31;1821960;78;20844;-88
2022/05/29 09:32:22;;;;;;;11.40;9.08;;;;;;;15.65;71.37;100905.26;1822012;78;21205;-88
2022/05/29 09:35:03;;;;;;;9.15;8.18;;;;;;;15.67;71.45;100894.54;1821718;78;20919;-88
2022/05/29 09:37:59;;;;;;;2.33;2.05;;;;;;;15.68;71.29;100895.75;1821568;78;20919;-89
2022/05/29 09:40:34;;;;;;;2.85;1.87;;;;;;;15.66;71.26;100904.77;1822040;78;20954;-89
2022/05/29 09:43:23;;;;;;;5.67;2.10;;;;;;;15.66;71.63;100912.21;1821213;78;20915;-88
2022/05/29 09:45:51;;;;;;;7.45;5.08;;;;;;;15.70;72.15;100914.98;1821734;78;21129;-87
2022/05/29 09:51:14;;;;;;;2.60;1.40;;;;;;;15.71;72.05;100915.86;1821710;78;20942;-87
2022/05/29 09:53:46;;;;;;;3.05;1.98;;;;;;;15.73;72.00;100921.38;1821754;78;21634;-90
2022/05/29 09:56:13;;;;;;;1.72;1.47;;;;;;;15.80;72.07;100936.30;1821750;78;21146;-89
2022/05/29 09:58:48;;;;;;;2.83;1.92;;;;;;;15.86;72.05;100930.55;1816694;78;21949;-88
2022/05/29 10:01:36;;;;;;;3.08;1.30;;;;;;;15.91;71.73;100913.83;1821904;78;21292;-88
2022/05/29 10:04:09;;;;;;;2.02;1.30;;;;;;;15.88;70.83;100910.59;1821590;78;20884;-88
2022/05/29 10:06:42;;;;;;;1.50;1.40;;;;;;;15.87;70.89;100917.66;1821446;78;20889;-88
2022/05/29 10:09:21;;;;;;;1.87;1.17;;;;;;;15.91;71.46;100938.12;1821994;78;20935;-86
2022/05/29 10:11:58;;;;;;;1.40;1.30;;;;;;;15.94;71.71;100932.13;1821721;78;21122;-88
2022/05/29 10:14:40;;;;;;;2.22;1.55;;;;;;;15.99;71.71;100919.86;1821676;78;20939;-88
2022/05/29 10:17:17;;;;;;;1.75;1.42;;;;;;;15.96;70.76;100901.56;1821927;78;20935;-87
2022/05/29 10:19:45;;;;;;;2.12;1.15;;;;;;;15.92;69.98;100896.18;1821774;78;20915;-90
2022/05/29 10:22:38;;;;;;;1.40;1.10;;;;;;;15.90;69.90;100903.39;1821558;78;21369;-87
2022/05/29 10:25:15;;;;;;;1.50;1.35;;;;;;;15.88;69.55;100902.17;1821646;78;21361;-89
2022/05/29 10:27:45;;;;;;;2.10;1.22;;;;;;;15.86;69.70;100903.27;1821530;78;20895;-88
2022/05/29 10:30:14;;;;;;;2.33;1.20;;;;;;;15.88;69.94;100901.34;1816358;78;20876;-88
2022/05/29 10:32:46;;;;;;;2.25;1.90;;;;;;;15.90;70.05;100891.00;1821913;78;20994;-88
2022/05/29 10:35:24;;;;;;;1.85;1.67;;;;;;;15.89;69.81;100881.36;1822211;78;20887;-87
2022/05/29 10:37:52;;;;;;;3.20;1.37;;;;;;;15.91;69.85;100873.31;1821828;78;23570;-86
2022/05/29 10:40:31;;;;;;;20.80;14.73;;;;;;;15.97;69.88;100877.30;1821614;78;21330;-90
2022/05/29 10:43:01;;;;;;;5.65;4.67;;;;;;;16.02;69.61;100872.48;1821913;78;20978;-87
2022/05/29 10:45:35;;;;;;;3.85;3.25;;;;;;;16.05;69.31;100870.90;1821736;78;20896;-87
2022/05/29 10:48:10;;;;;;;4.80;4.10;;;;;;;16.09;69.30;100877.15;1765769;78;21341;-88
2022/05/29 10:51:00;;;;;;;3.80;3.22;;;;;;;16.13;69.17;100878.59;1821625;78;21392;-88
2022/05/29 10:53:56;;;;;;;3.40;2.22;;;;;;;16.22;68.95;100877.52;1822374;78;21060;-90
2022/05/29 10:57:05;;;;;;;3.27;1.90;;;;;;;16.29;68.70;100878.21;1821607;78;20848;-86
2022/05/29 11:00:10;;;;;;;2.12;1.50;;;;;;;16.34;68.59;100877.37;1750555;80;21393;-89
2022/05/29 11:03:21;;;;;;;2.70;1.72;;;;;;;16.42;68.45;100884.69;1714773;83;20971;-88
2022/05/29 11:05:59;;;;;;;3.42;2.02;;;;;;;16.55;68.27;100893.33;1714823;82;21260;-88
2022/05/29 11:09:09;;;;;;;2.45;1.82;;;;;;;16.65;67.83;100879.34;1684673;85;20952;-87
2022/05/29 11:12:16;;;;;;;2.05;1.37;;;;;;;16.74;67.72;100886.53;1715022;82;20967;-88
2022/05/29 11:14:54;;;;;;;1.77;1.40;;;;;;;16.84;67.11;100890.15;1714615;82;20956;-88
2022/05/29 11:17:56;;;;;;;1.82;1.35;;;;;;;16.85;65.81;100897.14;1657698;83;20872;-88
2022/05/29 11:20:46;;;;;;;2.95;1.10;;;;;;;16.82;65.31;100884.13;1684787;83;21152;-88
2022/05/29 11:23:27;;;;;;;3.10;1.30;;;;;;;16.85;65.35;100884.36;1714480;83;20919;-89
2022/05/29 11:26:22;;;;;;;4.12;1.45;;;;;;;16.91;65.52;100872.77;1716690;83;20987;-86
2022/05/29 11:29:04;;;;;;;;;;;;;;;17.01;65.24;100872.88;1691610;83;21020;-87
2022/05/29 11:31:45;;;;;;;2.47;1.25;;;;;;;17.12;64.66;100861.34;1698459;83;20093;-86
2022/05/29 11:34:33;;;;;;;2.20;1.70;;;;;;;17.18;64.26;100858.19;1732885;81;21233;-86
2022/05/29 11:37:28;;;;;;;5.05;1.85;;;;;;;17.26;63.82;100860.21;1769659;81;20908;-88
2022/05/29 11:40:17;;;;;;;1.40;1.12;;;;;;;17.32;63.45;100864.97;1769580;81;21043;-85
2022/05/29 11:43:01;;;;;;;2.80;1.42;;;;;;;17.40;63.14;100873.96;1769372;81;20925;-88
2022/05/29 11:51:28;;;;;;;2.25;1.60;;;;;;;17.69;62.22;100874.61;1789666;80;20959;-84
2022/05/29 11:54:12;;;;;;;2.08;1.72;;;;;;;17.76;61.67;100880.23;1789484;80;21642;-88
2022/05/29 11:56:45;;;;;;;4.05;1.40;;;;;;;17.77;60.50;100878.78;1789555;80;21033;-87
2022/05/29 11:59:20;;;;;;;2.33;1.02;;;;;;;17.76;60.28;100875.79;1789497;80;21004;-87
2022/05/29 12:01:59;;;;;;;3.15;1.52;;;;;;;17.72;59.97;100874.83;1789607;80;21211;-87
2022/05/29 12:04:31;;;;;;;2.10;1.70;;;;;;;17.70;60.17;100879.45;1776201;80;21424;-88
2022/05/29 12:07:20;;;;;;;1.87;1.40;;;;;;;17.69;60.44;100877.27;1789412;80;21451;-87
2022/05/29 12:10:20;;;;;;;2.77;1.62;;;;;;;17.69;60.50;100869.31;1789574;80;20994;-88
2022/05/29 12:12:52;;;;;;;3.25;1.87;;;;;;;17.68;60.18;100872.11;1789246;80;20954;-86
2022/05/29 12:15:21;;;;;;;2.72;1.30;;;;;;;17.67;60.38;100871.74;1789216;80;21165;-86
2022/05/29 12:17:55;;;;;;;3.17;1.50;;;;;;;17.67;60.12;100864.62;1789414;80;20876;-87
2022/05/29 12:20:39;;;;;;;2.45;1.85;;;;;;;17.66;59.98;100861.63;1789520;80;20879;-88
2022/05/29 12:23:26;;;;;;;1.37;1.27;;;;;;;17.61;60.17;100849.26;1789335;80;20951;-87
2022/05/29 12:26:06;;;;;;;5.28;3.27;;;;;;;17.59;60.65;100856.50;1789425;80;21298;-89
2022/05/29 12:28:45;;;;;;;2.40;1.72;;;;;;;17.53;60.41;100856.53;1790079;80;21891;-88
2022/05/29 12:31:20;;;;;;;1.35;1.25;;;;;;;17.47;60.72;100858.38;1763378;81;20934;-88
2022/05/29 12:33:48;;;;;;;1.55;1.35;;;;;;;17.40;61.23;100862.03;1761365;81;20879;-88